createdAt,value
2023-03-30T00:00:47.879Z,43.46
2023-03-30T00:03:51.013Z,43.46
2023-03-30T00:06:54.458Z,43.43
2023-03-30T00:09:58.430Z,43.47
2023-03-30T00:13:02.773Z,43.43
2023-03-30T00:16:07.734Z,43.34
2023-03-30T00:19:10.642Z,43.48
2023-03-30T00:22:13.546Z,43.61
2023-03-30T00:25:17.782Z,43.54
2023-03-30T00:28:22.268Z,43.48
2023-03-30T00:31:25.564Z,43.52
2023-03-30T00:34:28.491Z,43.52
2023-03-30T00:37:31.389Z,43.50
2023-03-30T00:40:35.704Z,43.42
2023-03-30T00:43:58.316Z,43.48
2023-03-30T00:47:01.590Z,43.57
2023-03-30T00:50:08.007Z,43.48
2023-03-30T00:53:16.265Z,43.54
2023-03-30T00:56:24.030Z,43.60
2023-03-30T00:59:28.362Z,43.54
2023-03-30T01:02:35.744Z,43.61
2023-03-30T01:05:41.388Z,43.49
2023-03-30T01:08:45.264Z,43.59
2023-03-30T01:11:48.490Z,43.61
2023-03-30T01:14:52.994Z,43.49
2023-03-30T01:18:12.937Z,43.48
2023-03-30T01:21:31.578Z,43.51
2023-03-30T01:25:11.474Z,43.53
2023-03-30T01:28:31.671Z,43.51
2023-03-30T01:32:28.515Z,43.58
2023-03-30T01:35:53.168Z,43.49
2023-03-30T01:39:09.404Z,43.66
2023-03-30T01:42:20.489Z,43.57
2023-03-30T01:45:31.683Z,43.52
2023-03-30T01:48:45.410Z,43.54
2023-03-30T01:51:58.621Z,43.68
2023-03-30T01:55:06.348Z,43.65
2023-03-30T01:58:15.534Z,43.67
2023-03-30T02:01:21.685Z,43.58
2023-03-30T02:04:25.647Z,43.54
2023-03-30T02:07:32.452Z,43.50
2023-03-30T02:10:38.633Z,43.67
2023-03-30T02:13:43.462Z,43.59
2023-03-30T02:16:50.630Z,43.56
2023-03-30T02:19:56.972Z,43.58
2023-03-30T02:23:00.282Z,43.70
2023-03-30T02:26:04.685Z,43.61
2023-03-30T02:29:07.646Z,43.63
2023-03-30T02:32:18.119Z,43.62
2023-03-30T02:35:32.723Z,43.60
2023-03-30T02:39:08.031Z,43.55
2023-03-30T02:42:35.558Z,43.57
2023-03-30T02:45:51.514Z,43.48
2023-03-30T02:49:04.981Z,43.53
2023-03-30T02:52:20.151Z,43.38
2023-03-30T02:55:34.608Z,43.47
2023-03-30T02:59:07.434Z,43.38
2023-03-30T03:02:15.349Z,43.34
2023-03-30T03:05:22.477Z,43.42
2023-03-30T03:08:41.067Z,43.34
2023-03-30T03:11:47.721Z,43.39
2023-03-30T03:14:52.143Z,43.27
2023-03-30T03:17:55.309Z,43.26
2023-03-30T03:20:58.352Z,43.22
2023-03-30T03:24:01.233Z,43.21
2023-03-30T03:27:24.155Z,43.26
2023-03-30T03:30:39.074Z,43.22
2023-03-30T03:33:47.052Z,43.33
2023-03-30T03:36:56.433Z,43.28
2023-03-30T03:40:02.091Z,43.21
2023-03-30T03:43:05.287Z,43.20
2023-03-30T03:46:09.694Z,43.19
2023-03-30T03:49:12.995Z,43.17
2023-03-30T03:52:15.960Z,43.15
2023-03-30T03:55:19.595Z,43.17
2023-03-30T03:58:23.313Z,43.14
2023-03-30T04:01:29.963Z,43.21
2023-03-30T04:04:32.961Z,43.19
2023-03-30T04:07:37.014Z,43.22
2023-03-30T04:10:40.811Z,43.29
2023-03-30T04:14:03.990Z,43.16
2023-03-30T04:17:40.355Z,43.28
2023-03-30T04:20:57.066Z,43.19
2023-03-30T04:24:18.714Z,43.20
2023-03-30T04:27:42.751Z,43.30
2023-03-30T04:31:05.127Z,43.28
2023-03-30T04:34:31.013Z,43.36
2023-03-30T04:37:43.192Z,43.29
2023-03-30T04:40:49.441Z,43.25
2023-03-30T04:44:20.489Z,43.37
2023-03-30T04:47:49.406Z,43.19
2023-03-30T04:51:16.929Z,43.22
2023-03-30T04:54:43.099Z,42.95
2023-03-30T04:58:24.105Z,42.76
2023-03-30T05:01:40.591Z,42.70
2023-03-30T05:05:07.468Z,42.79
2023-03-30T05:08:50.114Z,42.70
2023-03-30T05:12:11.584Z,42.71
2023-03-30T05:15:21.829Z,42.86
2023-03-30T05:18:43.539Z,42.86
2023-03-30T05:21:57.052Z,42.80
2023-03-30T05:25:15.405Z,42.82
2023-03-30T05:28:36.926Z,42.94
2023-03-30T05:31:56.273Z,43.00
2023-03-30T05:35:22.238Z,43.00
2023-03-30T05:38:44.613Z,43.12
2023-03-30T05:42:12.637Z,43.24
2023-03-30T05:45:21.510Z,43.21
2023-03-30T05:49:00.105Z,43.31
2023-03-30T05:52:06.114Z,43.42
2023-03-30T05:55:27.747Z,43.54
2023-03-30T05:58:50.326Z,43.45
2023-03-30T06:02:13.016Z,43.52
2023-03-30T06:05:17.319Z,43.52
2023-03-30T06:08:22.783Z,43.55
2023-03-30T06:11:31.880Z,43.62
2023-03-30T06:14:56.431Z,43.58
2023-03-30T06:18:04.969Z,43.64
2023-03-30T06:21:11.691Z,43.58
2023-03-30T06:24:33.063Z,43.73
2023-03-30T06:27:37.475Z,43.74
2023-03-30T06:30:42.502Z,43.75
2023-03-30T06:33:47.805Z,43.88
2023-03-30T06:36:52.247Z,43.76
2023-03-30T06:39:56.360Z,43.81
2023-03-30T06:42:59.420Z,43.85
2023-03-30T06:46:15.819Z,43.80
2023-03-30T06:49:22.339Z,43.96
2023-03-30T06:52:43.627Z,43.94
2023-03-30T06:55:51.530Z,43.81
2023-03-30T06:58:55.292Z,43.94
2023-03-30T07:02:00.383Z,43.95
2023-03-30T07:05:24.967Z,43.85
2023-03-30T07:08:46.387Z,43.90
2023-03-30T07:11:56.511Z,44.08
2023-03-30T07:14:59.730Z,44.03
2023-03-30T07:18:04.686Z,44.08
2023-03-30T07:21:08.468Z,43.98
2023-03-30T07:24:14.874Z,44.07
2023-03-30T07:27:18.669Z,44.07
2023-03-30T07:30:23.975Z,44.16
2023-03-30T07:33:37.086Z,43.94
2023-03-30T07:36:41.409Z,44.14
2023-03-30T07:39:44.573Z,44.08
2023-03-30T07:42:47.913Z,44.10
2023-03-30T07:45:51.102Z,44.08
2023-03-30T07:49:02.047Z,44.07
2023-03-30T07:52:05.366Z,44.12
2023-03-30T07:55:28.869Z,44.16
2023-03-30T07:58:38.893Z,44.17
2023-03-30T08:01:41.820Z,44.16
2023-03-30T08:04:56.169Z,44.12
2023-03-30T08:08:10.815Z,44.23
2023-03-30T08:11:16.264Z,44.12
2023-03-30T08:14:19.222Z,44.16
2023-03-30T08:17:22.139Z,44.67
2023-03-30T08:20:27.062Z,44.25
2023-03-30T08:23:30.100Z,43.89
2023-03-30T08:26:33.043Z,43.52
2023-03-30T08:29:35.938Z,43.46
2023-03-30T08:32:38.928Z,43.54
2023-03-30T08:35:46.421Z,43.40
2023-03-30T08:38:49.504Z,43.29
2023-03-30T08:42:06.680Z,43.27
2023-03-30T08:45:12.982Z,43.18
2023-03-30T08:48:19.682Z,43.14
2023-03-30T08:51:26.170Z,43.26
2023-03-30T08:54:31.758Z,43.40
2023-03-30T08:57:46.902Z,43.45
2023-03-30T09:00:55.723Z,43.58
2023-03-30T09:04:19.431Z,43.66
2023-03-30T09:07:25.916Z,43.58
2023-03-30T09:10:32.848Z,43.52
2023-03-30T09:13:37.940Z,43.58
2023-03-30T09:16:51.667Z,43.53
2023-03-30T09:19:58.206Z,43.60
2023-03-30T09:23:04.310Z,43.61
2023-03-30T09:26:18.338Z,43.58
2023-03-30T09:29:27.534Z,43.62
2023-03-30T09:32:33.637Z,43.61
2023-03-30T09:35:42.129Z,43.63
2023-03-30T09:38:46.796Z,43.64
2023-03-30T09:42:01.083Z,43.64
2023-03-30T09:45:12.883Z,43.74
2023-03-30T09:48:17.042Z,43.76
2023-03-30T09:51:22.938Z,43.75
2023-03-30T09:54:36.142Z,43.75
2023-03-30T09:57:39.015Z,43.76
2023-03-30T10:00:42.146Z,43.82
2023-03-30T10:03:47.575Z,43.72
2023-03-30T10:06:51.439Z,43.68
2023-03-30T10:09:56.353Z,43.65
2023-03-30T10:13:05.947Z,43.72
2023-03-30T10:16:14.095Z,43.78
2023-03-30T10:19:19.502Z,43.95
2023-03-30T10:22:23.434Z,43.88
2023-03-30T10:25:31.582Z,43.89
2023-03-30T10:28:35.870Z,43.92
2023-03-30T10:31:40.881Z,43.98
2023-03-30T10:34:45.639Z,43.93
2023-03-30T10:37:50.915Z,43.89
2023-03-30T10:41:02.805Z,44.01
2023-03-30T10:44:20.466Z,44.04
2023-03-30T10:47:42.945Z,44.14
2023-03-30T10:50:52.724Z,44.13
2023-03-30T10:54:05.742Z,44.19
2023-03-30T10:57:14.913Z,44.15
2023-03-30T11:00:37.043Z,44.11
2023-03-30T11:03:41.271Z,44.10
2023-03-30T11:06:45.688Z,44.12
2023-03-30T11:09:55.364Z,44.04
2023-03-30T11:13:02.366Z,44.07
2023-03-30T11:16:12.949Z,44.16
2023-03-30T11:19:22.706Z,44.15
2023-03-30T11:22:36.589Z,44.29
2023-03-30T11:25:47.551Z,44.40
2023-03-30T11:29:01.904Z,43.98
2023-03-30T11:32:18.179Z,42.92
2023-03-30T11:35:28.182Z,42.71
2023-03-30T11:38:44.251Z,42.61
2023-03-30T11:41:51.955Z,42.34
2023-03-30T11:44:57.092Z,42.13
2023-03-30T11:48:38.430Z,42.43
2023-03-30T11:51:57.668Z,42.39
2023-03-30T11:55:20.872Z,42.56
2023-03-30T11:58:33.158Z,42.90
2023-03-30T12:01:53.494Z,43.01
2023-03-30T12:05:02.167Z,42.79
2023-03-30T12:08:18.298Z,42.96
2023-03-30T12:11:29.524Z,42.87
2023-03-30T12:14:44.539Z,43.00
2023-03-30T12:17:52.960Z,43.20
2023-03-30T12:21:04.024Z,43.15
2023-03-30T12:24:15.807Z,43.19
2023-03-30T12:27:18.806Z,43.20
2023-03-30T12:30:27.958Z,43.22
2023-03-30T12:33:36.523Z,43.28
2023-03-30T12:36:41.424Z,43.40
2023-03-30T12:39:49.045Z,43.44
2023-03-30T12:43:02.132Z,43.43
2023-03-30T12:46:14.083Z,43.30
2023-03-30T12:49:25.991Z,43.49
2023-03-30T12:52:39.943Z,43.52
2023-03-30T12:55:47.549Z,43.60
2023-03-30T12:59:08.356Z,43.63
2023-03-30T13:02:32.960Z,43.74
2023-03-30T13:05:42.059Z,43.81
2023-03-30T13:08:45.271Z,43.82
2023-03-30T13:12:20.410Z,43.81
2023-03-30T13:15:48.247Z,43.84
2023-03-30T13:18:55.819Z,43.88
2023-03-30T13:22:21.133Z,43.65
2023-03-30T13:25:30.575Z,43.88
2023-03-30T13:28:51.693Z,43.82
2023-03-30T13:32:08.379Z,43.90
2023-03-30T13:35:27.895Z,44.02
2023-03-30T13:38:59.812Z,44.11
2023-03-30T13:42:19.205Z,44.24
2023-03-30T13:45:36.317Z,44.25
2023-03-30T13:48:55.703Z,44.25
2023-03-30T13:52:04.431Z,44.27
2023-03-30T13:55:18.558Z,44.27
2023-03-30T13:58:24.280Z,44.22
2023-03-30T14:01:27.476Z,44.34
2023-03-30T14:04:32.735Z,44.36
2023-03-30T14:07:43.542Z,44.39
2023-03-30T14:10:50.871Z,44.33
2023-03-30T14:13:54.823Z,44.31
2023-03-30T14:16:59.678Z,44.54
2023-03-30T14:20:15.926Z,44.40
2023-03-30T14:23:21.663Z,44.55
2023-03-30T14:26:28.044Z,44.52
2023-03-30T14:29:32.378Z,44.52
2023-03-30T14:32:35.449Z,44.56
2023-03-30T14:35:43.037Z,44.59
2023-03-30T14:38:48.125Z,44.63
2023-03-30T14:41:53.479Z,44.58
2023-03-30T14:44:58.888Z,44.58
2023-03-30T14:48:02.711Z,44.71
2023-03-30T14:51:09.530Z,44.70
2023-03-30T14:54:17.618Z,44.97
2023-03-30T14:57:23.560Z,44.83
2023-03-30T15:00:26.756Z,45.06
2023-03-30T15:03:34.770Z,45.05
2023-03-30T15:06:39.191Z,45.20
2023-03-30T15:09:42.097Z,45.38
2023-03-30T15:12:47.741Z,45.18
2023-03-30T15:15:51.318Z,45.36
2023-03-30T15:19:00.894Z,45.33
2023-03-30T15:22:08.674Z,45.32
2023-03-30T15:25:16.907Z,45.33
2023-03-30T15:28:21.537Z,45.55
2023-03-30T15:31:26.713Z,45.42
2023-03-30T15:34:29.726Z,45.54
2023-03-30T15:37:35.693Z,45.42
2023-03-30T15:40:41.126Z,45.41
2023-03-30T15:43:57.020Z,45.44
2023-03-30T15:47:01.940Z,45.52
2023-03-30T15:50:05.599Z,45.55
2023-03-30T15:53:15.758Z,45.51
2023-03-30T15:56:22.651Z,45.41
2023-03-30T15:59:32.438Z,45.44
2023-03-30T16:02:40.512Z,45.39
2023-03-30T16:05:45.320Z,45.47
2023-03-30T16:08:48.173Z,45.43
2023-03-30T16:11:51.546Z,45.52
2023-03-30T16:14:56.543Z,45.33
2023-03-30T16:17:59.489Z,45.52
2023-03-30T16:21:02.646Z,45.62
2023-03-30T16:24:05.991Z,45.63
2023-03-30T16:27:11.151Z,45.70
2023-03-30T16:30:20.055Z,45.54
2023-03-30T16:33:23.007Z,45.76
2023-03-30T16:36:25.879Z,45.83
2023-03-30T16:39:30.554Z,45.72
2023-03-30T16:42:33.483Z,45.71
2023-03-30T16:45:37.953Z,45.85
2023-03-30T16:48:40.935Z,45.72
2023-03-30T16:51:44.415Z,45.75
2023-03-30T16:54:47.243Z,45.66
2023-03-30T16:57:50.335Z,45.75
2023-03-30T17:01:01.012Z,45.65
2023-03-30T17:04:09.628Z,45.70
2023-03-30T17:07:12.580Z,45.57
2023-03-30T17:10:25.054Z,45.56
2023-03-30T17:13:27.971Z,45.61
2023-03-30T17:16:32.404Z,45.61
2023-03-30T17:19:35.282Z,45.54
2023-03-30T17:22:38.161Z,45.54
2023-03-30T17:25:41.907Z,45.56
2023-03-30T17:28:45.277Z,45.38
2023-03-30T17:31:49.571Z,45.55
2023-03-30T17:34:52.587Z,45.61
2023-03-30T17:37:56.605Z,45.51
2023-03-30T17:40:59.783Z,45.46
2023-03-30T17:44:02.968Z,45.55
2023-03-30T17:47:07.312Z,45.61
2023-03-30T17:50:19.935Z,45.74
2023-03-30T17:53:23.427Z,45.71
2023-03-30T17:56:26.776Z,45.64
2023-03-30T17:59:31.328Z,45.67
2023-03-30T18:02:35.673Z,45.54
2023-03-30T18:05:38.555Z,45.64
2023-03-30T18:08:42.978Z,45.52
2023-03-30T18:11:45.989Z,45.68
2023-03-30T18:14:49.072Z,45.60
2023-03-30T18:17:53.591Z,45.49
2023-03-30T18:20:58.855Z,45.63
2023-03-30T18:24:03.633Z,45.73
2023-03-30T18:27:06.821Z,45.70
2023-03-30T18:30:29.410Z,45.63
2023-03-30T18:33:34.349Z,45.70
2023-03-30T18:36:37.280Z,45.67
2023-03-30T18:39:40.323Z,45.59
2023-03-30T18:42:45.487Z,45.67
2023-03-30T18:45:50.133Z,45.59
2023-03-30T18:48:54.491Z,45.69
2023-03-30T18:51:57.494Z,45.77
2023-03-30T18:55:00.391Z,45.74
2023-03-30T18:58:06.499Z,45.94
2023-03-30T19:01:09.927Z,45.96
2023-03-30T19:04:14.267Z,45.97
2023-03-30T19:07:17.148Z,45.87
2023-03-30T19:10:22.953Z,45.94
2023-03-30T19:13:27.306Z,45.88
2023-03-30T19:16:30.315Z,45.84
2023-03-30T19:19:34.626Z,45.76
2023-03-30T19:22:37.567Z,45.76
2023-03-30T19:25:41.823Z,45.81
2023-03-30T19:28:44.702Z,45.90
2023-03-30T19:31:47.583Z,45.96
2023-03-30T19:34:51.834Z,45.89
2023-03-30T19:37:55.339Z,45.94
2023-03-30T19:41:00.893Z,46.05
2023-03-30T19:44:03.792Z,45.94
2023-03-30T19:47:07.360Z,45.96
2023-03-30T19:50:15.430Z,45.94
2023-03-30T19:53:18.386Z,45.98
2023-03-30T19:56:21.591Z,46.12
2023-03-30T19:59:24.634Z,45.94
2023-03-30T20:02:27.783Z,45.89
2023-03-30T20:05:32.158Z,45.97
2023-03-30T20:08:35.172Z,45.83
2023-03-30T20:11:38.078Z,45.85
2023-03-30T20:14:41.320Z,45.86
2023-03-30T20:17:44.365Z,45.83
2023-03-30T20:20:48.750Z,45.81
2023-03-30T20:23:51.998Z,45.83
2023-03-30T20:26:54.918Z,45.89
2023-03-30T20:29:57.846Z,45.83
2023-03-30T20:33:07.497Z,45.87
2023-03-30T20:36:13.121Z,45.79
2023-03-30T20:39:17.352Z,45.73
2023-03-30T20:42:26.060Z,45.79
2023-03-30T20:45:29.739Z,45.92
2023-03-30T20:48:37.447Z,46.08
2023-03-30T20:51:43.261Z,46.11
2023-03-30T20:54:46.448Z,46.18
2023-03-30T20:57:49.381Z,46.30
2023-03-30T21:00:53.341Z,46.40
2023-03-30T21:03:58.056Z,46.50
2023-03-30T21:07:02.401Z,46.25
2023-03-30T21:10:06.467Z,46.41
2023-03-30T21:13:09.588Z,46.33
2023-03-30T21:16:12.448Z,46.35
2023-03-30T21:19:15.390Z,46.20
2023-03-30T21:22:19.633Z,46.22
2023-03-30T21:25:22.492Z,46.28
2023-03-30T21:28:27.258Z,46.19
2023-03-30T21:31:30.403Z,46.27
2023-03-30T21:34:33.377Z,46.28
2023-03-30T21:37:37.813Z,46.24
2023-03-30T21:40:40.814Z,46.12
2023-03-30T21:43:45.652Z,46.10
2023-03-30T21:46:48.554Z,46.19
2023-03-30T21:49:52.241Z,46.17
2023-03-30T21:52:59.420Z,46.14
2023-03-30T21:56:02.794Z,46.12
2023-03-30T21:59:05.864Z,46.11
2023-03-30T22:02:08.868Z,46.09
2023-03-30T22:05:11.936Z,46.08
2023-03-30T22:08:17.888Z,46.10
2023-03-30T22:11:22.182Z,46.19
2023-03-30T22:14:25.154Z,45.92
2023-03-30T22:17:35.186Z,45.94
2023-03-30T22:20:41.231Z,45.92
2023-03-30T22:23:46.324Z,46.07
2023-03-30T22:26:49.413Z,45.92
2023-03-30T22:29:52.300Z,45.98
2023-03-30T22:32:56.753Z,45.92
2023-03-30T22:35:59.836Z,45.91
2023-03-30T22:39:04.979Z,45.93
2023-03-30T22:42:07.917Z,45.84
2023-03-30T22:45:11.966Z,46.03
2023-03-30T22:48:14.838Z,45.70
2023-03-30T22:51:23.382Z,45.66
2023-03-30T22:54:27.787Z,45.61
2023-03-30T22:57:31.751Z,45.52
2023-03-30T23:00:34.665Z,45.57
2023-03-30T23:03:37.802Z,45.52
2023-03-30T23:06:40.769Z,45.49
2023-03-30T23:09:47.416Z,45.62
2023-03-30T23:12:50.474Z,45.57
2023-03-30T23:15:53.366Z,45.50
2023-03-30T23:18:56.424Z,45.51
2023-03-30T23:21:59.289Z,45.39
2023-03-30T23:25:03.617Z,45.48
2023-03-30T23:28:06.776Z,45.53
2023-03-30T23:31:11.951Z,45.48
2023-03-30T23:34:16.521Z,45.36
2023-03-30T23:37:19.664Z,45.29
2023-03-30T23:40:23.916Z,45.32
2023-03-30T23:43:27.245Z,45.27
2023-03-30T23:46:30.614Z,45.30
2023-03-30T23:49:33.494Z,45.25
2023-03-30T23:52:36.365Z,45.34
2023-03-30T23:55:41.293Z,45.25
2023-03-30T23:58:44.245Z,45.28
